sensor_id;sensor_type;location;lat;lon;timestamp;pressure;altitude;pressure_sealevel;temperature;humidity
61870;BME280;47810;42.264;23.826;2023-04-02T00:11:38;92870.97;;;8.54;47.94
61870;BME280;47810;42.264;23.826;2023-04-02T00:14:12;92872.19;;;8.61;46.79
61870;BME280;47810;42.264;23.826;2023-04-02T00:16:39;92863.44;;;8.61;47.72
61870;BME280;47810;42.264;23.826;2023-04-02T00:19:06;92863.78;;;8.56;48.49
61870;BME280;47810;42.264;23.826;2023-04-02T00:21:33;92861.88;;;8.58;48.40
61870;BME280;47810;42.264;23.826;2023-04-02T00:24:01;92864.81;;;8.54;48.28
61870;BME280;47810;42.264;23.826;2023-04-02T00:26:35;92870.97;;;8.54;47.82
61870;BME280;47810;42.264;23.826;2023-04-02T00:29:02;92867.97;;;8.35;48.42
61870;BME280;47810;42.264;23.826;2023-04-02T00:31:28;92861.75;;;8.36;48.64
61870;BME280;47810;42.264;23.826;2023-04-02T00:33:54;92843.53;;;8.46;48.27
61870;BME280;47810;42.264;23.826;2023-04-02T00:36:20;92855.03;;;8.32;49.21
61870;BME280;47810;42.264;23.826;2023-04-02T00:38:46;92853.34;;;8.31;49.19
61870;BME280;47810;42.264;23.826;2023-04-02T00:41:16;92853.28;;;8.20;48.56
61870;BME280;47810;42.264;23.826;2023-04-02T00:43:44;92849.78;;;8.32;48.37
61870;BME280;47810;42.264;23.826;2023-04-02T00:46:13;92853.91;;;8.47;47.63
61870;BME280;47810;42.264;23.826;2023-04-02T00:48:41;92848.44;;;8.50;48.63
61870;BME280;47810;42.264;23.826;2023-04-02T00:51:14;92856.09;;;8.29;49.74
61870;BME280;47810;42.264;23.826;2023-04-02T00:53:43;92860.59;;;8.40;49.97
61870;BME280;47810;42.264;23.826;2023-04-02T00:56:21;92874.84;;;8.12;51.43
61870;BME280;47810;42.264;23.826;2023-04-02T00:58:50;92877.78;;;8.20;55.25
61870;BME280;47810;42.264;23.826;2023-04-02T01:01:18;92877.03;;;7.94;57.47
61870;BME280;47810;42.264;23.826;2023-04-02T01:03:54;92883.34;;;7.79;59.40
61870;BME280;47810;42.264;23.826;2023-04-02T01:06:23;92898.50;;;7.50;61.27
61870;BME280;47810;42.264;23.826;2023-04-02T01:24:17;92933.78;;;6.67;61.93
61870;BME280;47810;42.264;23.826;2023-04-02T01:26:56;92929.94;;;6.86;61.41
61870;BME280;47810;42.264;23.826;2023-04-02T01:29:23;92921.47;;;6.95;62.26
61870;BME280;47810;42.264;23.826;2023-04-02T01:31:49;92923.03;;;6.85;63.16
61870;BME280;47810;42.264;23.826;2023-04-02T01:34:20;92928.50;;;6.94;63.61
61870;BME280;47810;42.264;23.826;2023-04-02T01:39:18;92922.81;;;6.88;62.37
61870;BME280;47810;42.264;23.826;2023-04-02T01:42:00;92913.75;;;6.66;62.70
61870;BME280;47810;42.264;23.826;2023-04-02T01:44:28;92915.88;;;6.47;63.27
61870;BME280;47810;42.264;23.826;2023-04-02T01:46:56;92914.53;;;6.54;62.58
61870;BME280;47810;42.264;23.826;2023-04-02T01:49:25;92921.88;;;6.49;63.51
61870;BME280;47810;42.264;23.826;2023-04-02T01:51:52;92924.97;;;6.00;64.69
61870;BME280;47810;42.264;23.826;2023-04-02T01:54:20;92919.09;;;5.96;65.20
61870;BME280;47810;42.264;23.826;2023-04-02T01:56:46;92924.78;;;6.03;65.98
61870;BME280;47810;42.264;23.826;2023-04-02T01:59:13;92936.03;;;5.91;66.10
61870;BME280;47810;42.264;23.826;2023-04-02T02:02:01;92926.88;;;5.98;66.21
61870;BME280;47810;42.264;23.826;2023-04-02T02:04:25;92921.63;;;5.69;66.57
61870;BME280;47810;42.264;23.826;2023-04-02T02:06:51;92935.34;;;5.87;66.66
61870;BME280;47810;42.264;23.826;2023-04-02T02:09:21;92935.75;;;5.95;66.09
61870;BME280;47810;42.264;23.826;2023-04-02T02:11:48;92930.59;;;5.94;66.39
61870;BME280;47810;42.264;23.826;2023-04-02T02:14:18;92937.16;;;6.01;66.32
61870;BME280;47810;42.264;23.826;2023-04-02T02:16:46;92936.53;;;5.97;66.15
61870;BME280;47810;42.264;23.826;2023-04-02T02:19:22;92939.22;;;5.81;66.90
61870;BME280;47810;42.264;23.826;2023-04-02T02:21:54;92936.78;;;5.78;67.44
61870;BME280;47810;42.264;23.826;2023-04-02T02:26:47;92939.28;;;5.80;67.00
61870;BME280;47810;42.264;23.826;2023-04-02T02:29:16;92940.50;;;5.89;66.56
61870;BME280;47810;42.264;23.826;2023-04-02T02:31:42;92943.13;;;5.89;66.44
61870;BME280;47810;42.264;23.826;2023-04-02T02:34:14;92953.59;;;5.89;67.40
61870;BME280;47810;42.264;23.826;2023-04-02T02:36:46;92944.47;;;5.81;66.51
61870;BME280;47810;42.264;23.826;2023-04-02T02:41:59;92948.94;;;5.94;65.79
61870;BME280;47810;42.264;23.826;2023-04-02T02:44:32;92951.38;;;5.97;66.07
61870;BME280;47810;42.264;23.826;2023-04-02T02:47:05;92948.03;;;5.95;65.96
61870;BME280;47810;42.264;23.826;2023-04-02T02:49:35;92947.41;;;6.18;66.31
61870;BME280;47810;42.264;23.826;2023-04-02T02:54:32;92947.53;;;6.17;65.15
61870;BME280;47810;42.264;23.826;2023-04-02T02:57:01;92945.38;;;6.09;65.92
61870;BME280;47810;42.264;23.826;2023-04-02T02:59:28;92946.00;;;6.13;65.81
61870;BME280;47810;42.264;23.826;2023-04-02T03:01:56;92938.78;;;6.16;66.65
61870;BME280;47810;42.264;23.826;2023-04-02T03:04:22;92948.63;;;6.27;64.99
61870;BME280;47810;42.264;23.826;2023-04-02T03:06:51;92944.78;;;6.18;65.81
61870;BME280;47810;42.264;23.826;2023-04-02T03:09:35;92938.28;;;5.97;66.13
61870;BME280;47810;42.264;23.826;2023-04-02T03:14:52;92940.69;;;6.00;67.32
61870;BME280;47810;42.264;23.826;2023-04-02T03:17:22;92947.44;;;5.75;67.69
61870;BME280;47810;42.264;23.826;2023-04-02T03:19:53;92953.97;;;5.82;67.39
61870;BME280;47810;42.264;23.826;2023-04-02T03:22:37;92936.13;;;5.75;67.86
61870;BME280;47810;42.264;23.826;2023-04-02T03:25:26;92949.50;;;5.70;67.63
61870;BME280;47810;42.264;23.826;2023-04-02T03:27:57;92946.34;;;5.65;69.11
61870;BME280;47810;42.264;23.826;2023-04-02T03:30:41;92945.19;;;5.69;68.61
61870;BME280;47810;42.264;23.826;2023-04-02T03:33:12;92942.38;;;5.58;69.47
61870;BME280;47810;42.264;23.826;2023-04-02T03:35:40;92944.25;;;5.70;68.13
61870;BME280;47810;42.264;23.826;2023-04-02T03:38:22;92949.31;;;5.59;68.07
61870;BME280;47810;42.264;23.826;2023-04-02T03:43:38;92962.03;;;5.79;67.57
61870;BME280;47810;42.264;23.826;2023-04-02T03:46:11;92961.28;;;5.77;68.11
61870;BME280;47810;42.264;23.826;2023-04-02T03:48:40;92961.84;;;5.68;67.55
61870;BME280;47810;42.264;23.826;2023-04-02T03:51:20;92958.16;;;5.42;68.80
61870;BME280;47810;42.264;23.826;2023-04-02T03:53:48;92959.41;;;5.51;68.95
61870;BME280;47810;42.264;23.826;2023-04-02T03:56:34;92957.38;;;5.56;67.98
61870;BME280;47810;42.264;23.826;2023-04-02T04:04:30;92955.84;;;5.52;68.91
61870;BME280;47810;42.264;23.826;2023-04-02T04:06:56;92958.84;;;5.60;69.39
61870;BME280;47810;42.264;23.826;2023-04-02T04:11:49;92956.31;;;5.44;69.14
61870;BME280;47810;42.264;23.826;2023-04-02T04:14:23;92957.38;;;5.56;69.38
61870;BME280;47810;42.264;23.826;2023-04-02T04:19:37;92947.69;;;5.28;70.01
61870;BME280;47810;42.264;23.826;2023-04-02T04:22:15;92948.53;;;5.28;70.37
61870;BME280;47810;42.264;23.826;2023-04-02T04:24:42;92958.38;;;5.53;70.63
61870;BME280;47810;42.264;23.826;2023-04-02T04:30:03;92955.38;;;5.45;69.99
61870;BME280;47810;42.264;23.826;2023-04-02T04:32:36;92951.44;;;5.24;71.52
61870;BME280;47810;42.264;23.826;2023-04-02T04:35:18;92948.53;;;5.28;71.04
61870;BME280;47810;42.264;23.826;2023-04-02T04:37:45;92952.81;;;5.15;72.10
61870;BME280;47810;42.264;23.826;2023-04-02T04:40:23;92946.69;;;5.45;70.91
61870;BME280;47810;42.264;23.826;2023-04-02T04:42:50;92948.47;;;5.44;71.14
61870;BME280;47810;42.264;23.826;2023-04-02T04:47:57;92952.13;;;5.56;71.30
61870;BME280;47810;42.264;23.826;2023-04-02T04:50:30;92953.72;;;5.73;69.05
61870;BME280;47810;42.264;23.826;2023-04-02T04:53:03;92949.69;;;5.67;68.71
61870;BME280;47810;42.264;23.826;2023-04-02T04:55:34;92947.16;;;5.66;68.42
61870;BME280;47810;42.264;23.826;2023-04-02T04:58:03;92947.06;;;5.81;68.00
61870;BME280;47810;42.264;23.826;2023-04-02T05:05:42;92956.22;;;6.03;66.02
61870;BME280;47810;42.264;23.826;2023-04-02T05:11:10;92956.69;;;6.10;67.48
61870;BME280;47810;42.264;23.826;2023-04-02T05:13:57;92956.69;;;6.24;65.79
61870;BME280;47810;42.264;23.826;2023-04-02T05:24:19;92963.47;;;6.41;65.48
61870;BME280;47810;42.264;23.826;2023-04-02T05:26:51;92961.88;;;6.38;65.47
61870;BME280;47810;42.264;23.826;2023-04-02T05:29:23;92966.13;;;6.53;64.99
61870;BME280;47810;42.264;23.826;2023-04-02T05:32:01;92975.69;;;6.54;65.92
61870;BME280;47810;42.264;23.826;2023-04-02T05:34:28;92976.50;;;6.69;66.40
61870;BME280;47810;42.264;23.826;2023-04-02T05:36:56;92973.59;;;6.87;64.99
61870;BME280;47810;42.264;23.826;2023-04-02T05:39:23;92977.38;;;6.83;65.63
61870;BME280;47810;42.264;23.826;2023-04-02T05:41:56;92973.84;;;6.96;65.01
61870;BME280;47810;42.264;23.826;2023-04-02T05:44:25;92973.88;;;7.09;63.69
61870;BME280;47810;42.264;23.826;2023-04-02T05:47:03;92990.09;;;7.16;64.92
61870;BME280;47810;42.264;23.826;2023-04-02T05:49:35;92982.09;;;7.17;63.89
61870;BME280;47810;42.264;23.826;2023-04-02T05:52:07;92986.31;;;7.20;63.24
61870;BME280;47810;42.264;23.826;2023-04-02T05:54:37;92995.56;;;7.26;63.94
61870;BME280;47810;42.264;23.826;2023-04-02T05:57:08;92996.28;;;7.28;63.26
61870;BME280;47810;42.264;23.826;2023-04-02T05:59:36;93005.63;;;7.32;63.35
61870;BME280;47810;42.264;23.826;2023-04-02T06:07:16;92992.66;;;7.68;62.03
61870;BME280;47810;42.264;23.826;2023-04-02T06:09:47;93003.78;;;7.59;62.71
61870;BME280;47810;42.264;23.826;2023-04-02T06:14:46;93012.84;;;7.68;63.49
61870;BME280;47810;42.264;23.826;2023-04-02T06:17:15;93007.81;;;7.78;62.34
61870;BME280;47810;42.264;23.826;2023-04-02T06:19:41;93014.09;;;7.88;63.84
61870;BME280;47810;42.264;23.826;2023-04-02T06:22:09;93022.19;;;7.72;63.88
61870;BME280;47810;42.264;23.826;2023-04-02T06:24:38;93022.31;;;7.83;64.37
61870;BME280;47810;42.264;23.826;2023-04-02T06:27:05;93019.16;;;7.91;62.49
61870;BME280;47810;42.264;23.826;2023-04-02T06:29:34;93027.59;;;7.96;62.93
61870;BME280;47810;42.264;23.826;2023-04-02T06:32:08;93027.59;;;7.96;62.45
61870;BME280;47810;42.264;23.826;2023-04-02T06:34:36;93034.94;;;8.16;62.84
61870;BME280;47810;42.264;23.826;2023-04-02T06:37:03;93035.97;;;8.27;63.17
61870;BME280;47810;42.264;23.826;2023-04-02T06:39:34;93035.53;;;8.33;61.22
61870;BME280;47810;42.264;23.826;2023-04-02T06:44:26;93029.66;;;8.42;62.03
61870;BME280;47810;42.264;23.826;2023-04-02T06:46:54;93025.22;;;8.55;58.94
61870;BME280;47810;42.264;23.826;2023-04-02T06:51:51;93030.44;;;8.68;59.85
61870;BME280;47810;42.264;23.826;2023-04-02T06:54:18;93034.34;;;8.99;59.70
61870;BME280;47810;42.264;23.826;2023-04-02T06:56:48;93035.84;;;9.15;60.73
61870;BME280;47810;42.264;23.826;2023-04-02T06:59:15;93039.75;;;9.22;58.14
61870;BME280;47810;42.264;23.826;2023-04-02T07:01:45;93046.00;;;9.32;56.82
61870;BME280;47810;42.264;23.826;2023-04-02T07:04:13;93034.78;;;9.41;57.03
61870;BME280;47810;42.264;23.826;2023-04-02T07:06:38;93036.09;;;9.71;55.44
61870;BME280;47810;42.264;23.826;2023-04-02T07:09:04;93040.06;;;9.76;55.59
61870;BME280;47810;42.264;23.826;2023-04-02T07:11:31;93033.38;;;9.95;57.42
61870;BME280;47810;42.264;23.826;2023-04-02T07:13:56;93042.91;;;10.20;57.83
61870;BME280;47810;42.264;23.826;2023-04-02T07:16:22;93041.25;;;10.53;56.86
61870;BME280;47810;42.264;23.826;2023-04-02T07:18:51;93048.72;;;10.70;53.99
61870;BME280;47810;42.264;23.826;2023-04-02T07:21:17;93045.06;;;11.05;53.97
61870;BME280;47810;42.264;23.826;2023-04-02T07:23:43;93045.50;;;11.21;53.14
61870;BME280;47810;42.264;23.826;2023-04-02T07:26:11;93037.78;;;11.40;52.69
61870;BME280;47810;42.264;23.826;2023-04-02T07:28:37;93039.16;;;11.56;51.68
61870;BME280;47810;42.264;23.826;2023-04-02T07:31:03;93038.06;;;11.91;51.14
61870;BME280;47810;42.264;23.826;2023-04-02T07:33:29;93033.81;;;11.99;51.55
61870;BME280;47810;42.264;23.826;2023-04-02T07:35:55;93045.28;;;12.30;51.43
61870;BME280;47810;42.264;23.826;2023-04-02T07:38:21;93043.00;;;12.47;50.15
61870;BME280;47810;42.264;23.826;2023-04-02T07:40:47;93043.22;;;12.65;50.61
61870;BME280;47810;42.264;23.826;2023-04-02T07:43:12;93029.66;;;12.89;46.69
61870;BME280;47810;42.264;23.826;2023-04-02T07:45:38;93033.63;;;13.04;48.56
61870;BME280;47810;42.264;23.826;2023-04-02T07:48:04;93036.16;;;13.15;45.26
61870;BME280;47810;42.264;23.826;2023-04-02T07:50:31;93031.56;;;13.17;44.57
61870;BME280;47810;42.264;23.826;2023-04-02T07:52:56;93027.09;;;13.18;43.59
61870;BME280;47810;42.264;23.826;2023-04-02T07:55:22;93030.56;;;13.18;43.67
61870;BME280;47810;42.264;23.826;2023-04-02T08:00:13;93020.63;;;13.70;43.84
61870;BME280;47810;42.264;23.826;2023-04-02T08:02:40;93020.34;;;13.73;43.81
61870;BME280;47810;42.264;23.826;2023-04-02T08:05:06;93015.56;;;13.77;41.34
61870;BME280;47810;42.264;23.826;2023-04-02T08:07:33;93019.50;;;13.73;43.30
61870;BME280;47810;42.264;23.826;2023-04-02T08:09:58;93021.72;;;14.07;46.99
61870;BME280;47810;42.264;23.826;2023-04-02T08:12:24;93025.34;;;13.96;43.97
61870;BME280;47810;42.264;23.826;2023-04-02T08:14:50;93022.81;;;14.24;42.11
61870;BME280;47810;42.264;23.826;2023-04-02T08:17:15;93031.47;;;14.26;41.73
61870;BME280;47810;42.264;23.826;2023-04-02T08:19:43;93030.03;;;14.41;40.86
61870;BME280;47810;42.264;23.826;2023-04-02T08:22:09;93029.00;;;13.95;42.23
61870;BME280;47810;42.264;23.826;2023-04-02T08:24:35;93029.13;;;14.23;40.26
61870;BME280;47810;42.264;23.826;2023-04-02T08:27:00;93032.91;;;14.01;41.42
61870;BME280;47810;42.264;23.826;2023-04-02T08:29:26;93031.44;;;14.55;40.23
61870;BME280;47810;42.264;23.826;2023-04-02T08:31:57;93026.09;;;14.64;39.95
61870;BME280;47810;42.264;23.826;2023-04-02T08:34:22;93019.47;;;14.78;40.00
61870;BME280;47810;42.264;23.826;2023-04-02T08:36:48;93021.94;;;14.52;38.65
61870;BME280;47810;42.264;23.826;2023-04-02T08:39:13;93033.00;;;14.85;39.71
61870;BME280;47810;42.264;23.826;2023-04-02T08:41:50;93027.06;;;15.01;39.88
61870;BME280;47810;42.264;23.826;2023-04-02T08:47:05;93021.19;;;15.25;40.12
61870;BME280;47810;42.264;23.826;2023-04-02T08:49:34;93016.25;;;15.57;40.21
61870;BME280;47810;42.264;23.826;2023-04-02T08:52:01;93026.91;;;15.30;39.14
61870;BME280;47810;42.264;23.826;2023-04-02T08:54:30;93011.84;;;15.21;39.94
61870;BME280;47810;42.264;23.826;2023-04-02T08:59:32;93017.94;;;15.31;39.15
61870;BME280;47810;42.264;23.826;2023-04-02T09:04:27;93014.31;;;15.32;39.77
61870;BME280;47810;42.264;23.826;2023-04-02T09:06:54;93030.97;;;15.06;39.21
61870;BME280;47810;42.264;23.826;2023-04-02T09:09:19;93021.25;;;15.43;40.81
61870;BME280;47810;42.264;23.826;2023-04-02T09:11:57;93030.47;;;15.21;41.00
61870;BME280;47810;42.264;23.826;2023-04-02T09:17:02;93031.16;;;14.95;38.77
61870;BME280;47810;42.264;23.826;2023-04-02T09:19:40;93034.38;;;14.89;38.30
61870;BME280;47810;42.264;23.826;2023-04-02T09:24:34;93040.38;;;14.54;38.91
61870;BME280;47810;42.264;23.826;2023-04-02T09:27:02;93037.38;;;14.00;40.27
61870;BME280;47810;42.264;23.826;2023-04-02T09:29:34;93029.19;;;14.50;40.05
61870;BME280;47810;42.264;23.826;2023-04-02T09:34:46;93031.47;;;14.26;38.68
61870;BME280;47810;42.264;23.826;2023-04-02T09:39:40;93030.91;;;14.41;39.03
61870;BME280;47810;42.264;23.826;2023-04-02T09:42:29;93028.50;;;14.48;39.31
61870;BME280;47810;42.264;23.826;2023-04-02T09:47:55;93018.38;;;14.71;38.51
61870;BME280;47810;42.264;23.826;2023-04-02T09:50:31;93020.78;;;14.64;38.09
61870;BME280;47810;42.264;23.826;2023-04-02T09:52:57;93014.97;;;14.51;39.37
61870;BME280;47810;42.264;23.826;2023-04-02T09:55:26;93017.78;;;14.20;38.54
61870;BME280;47810;42.264;23.826;2023-04-02T10:00:51;93010.59;;;14.97;37.75
61870;BME280;47810;42.264;23.826;2023-04-02T10:03:20;93013.81;;;15.64;37.75
61870;BME280;47810;42.264;23.826;2023-04-02T10:05:47;92997.88;;;16.00;35.74
61870;BME280;47810;42.264;23.826;2023-04-02T10:08:17;93001.16;;;16.38;36.64
61870;BME280;47810;42.264;23.826;2023-04-02T10:10:50;92992.84;;;16.41;40.52
61870;BME280;47810;42.264;23.826;2023-04-02T10:13:26;92986.81;;;17.25;37.45
61870;BME280;47810;42.264;23.826;2023-04-02T10:20:50;92984.41;;;17.06;34.06
61870;BME280;47810;42.264;23.826;2023-04-02T10:23:17;92983.94;;;17.18;33.71
61870;BME280;47810;42.264;23.826;2023-04-02T10:25:51;92984.78;;;17.19;35.53
61870;BME280;47810;42.264;23.826;2023-04-02T10:28:37;92994.41;;;17.62;35.74
61870;BME280;47810;42.264;23.826;2023-04-02T10:31:20;92975.22;;;17.75;33.77
61870;BME280;47810;42.264;23.826;2023-04-02T10:33:58;92974.28;;;17.26;35.56
61870;BME280;47810;42.264;23.826;2023-04-02T10:36:40;92970.22;;;17.64;32.71
61870;BME280;47810;42.264;23.826;2023-04-02T10:47:55;92980.97;;;18.05;34.44
61870;BME280;47810;42.264;23.826;2023-04-02T10:52:52;92976.28;;;17.90;31.88
61870;BME280;47810;42.264;23.826;2023-04-02T10:55:24;92956.25;;;18.03;34.50
61870;BME280;47810;42.264;23.826;2023-04-02T10:57:52;92962.84;;;18.89;33.11
61870;BME280;47810;42.264;23.826;2023-04-02T11:00:21;92968.34;;;18.71;34.40
61870;BME280;47810;42.264;23.826;2023-04-02T11:02:51;92961.06;;;18.48;32.82
61870;BME280;47810;42.264;23.826;2023-04-02T11:05:19;92973.88;;;18.69;32.50
61870;BME280;47810;42.264;23.826;2023-04-02T11:07:50;92978.59;;;18.75;36.13
61870;BME280;47810;42.264;23.826;2023-04-02T11:10:17;92983.63;;;17.97;34.28
61870;BME280;47810;42.264;23.826;2023-04-02T11:12:54;92980.31;;;18.27;32.29
61870;BME280;47810;42.264;23.826;2023-04-02T11:15:20;92967.75;;;18.44;32.83
61870;BME280;47810;42.264;23.826;2023-04-02T11:17:46;92972.09;;;18.45;32.24
61870;BME280;47810;42.264;23.826;2023-04-02T11:23:04;92973.25;;;18.59;32.86
61870;BME280;47810;42.264;23.826;2023-04-02T11:25:30;92974.94;;;18.44;30.13
61870;BME280;47810;42.264;23.826;2023-04-02T11:28:10;92971.38;;;18.68;31.34
61870;BME280;47810;42.264;23.826;2023-04-02T11:30:36;92964.09;;;18.37;31.86
61870;BME280;47810;42.264;23.826;2023-04-02T11:33:22;92971.81;;;19.04;29.90
61870;BME280;47810;42.264;23.826;2023-04-02T11:35:49;92972.28;;;18.27;31.72
61870;BME280;47810;42.264;23.826;2023-04-02T11:43:54;92945.41;;;19.01;31.08
61870;BME280;47810;42.264;23.826;2023-04-02T11:48:33;92953.03;;;18.73;32.99
61870;BME280;47810;42.264;23.826;2023-04-02T11:51:46;92948.56;;;18.00;30.78
61870;BME280;47810;42.264;23.826;2023-04-02T11:53:49;92949.22;;;18.43;32.90
61870;BME280;47810;42.264;23.826;2023-04-02T11:56:17;92949.47;;;18.80;31.01
61870;BME280;47810;42.264;23.826;2023-04-02T12:01:25;92947.16;;;18.77;32.12
61870;BME280;47810;42.264;23.826;2023-04-02T12:09:23;92933.25;;;19.29;33.92
61870;BME280;47810;42.264;23.826;2023-04-02T12:11:51;92928.75;;;18.74;32.43
61870;BME280;47810;42.264;23.826;2023-04-02T12:19:47;92920.16;;;19.35;31.42
61870;BME280;47810;42.264;23.826;2023-04-02T12:22:23;92925.94;;;19.15;32.55
61870;BME280;47810;42.264;23.826;2023-04-02T12:24:49;92928.75;;;18.74;31.63
61870;BME280;47810;42.264;23.826;2023-04-02T12:27:19;92925.75;;;18.69;31.94
61870;BME280;47810;42.264;23.826;2023-04-02T12:29:49;92920.72;;;19.22;30.55
61870;BME280;47810;42.264;23.826;2023-04-02T12:32:33;92916.22;;;19.45;33.07
61870;BME280;47810;42.264;23.826;2023-04-02T12:35:00;92915.94;;;19.71;30.81
61870;BME280;47810;42.264;23.826;2023-04-02T12:37:29;92911.41;;;19.09;31.72
61870;BME280;47810;42.264;23.826;2023-04-02T12:39:58;92916.69;;;18.87;31.36
61870;BME280;47810;42.264;23.826;2023-04-02T12:44:52;92915.41;;;18.66;33.24
61870;BME280;47810;42.264;23.826;2023-04-02T12:47:18;92898.22;;;19.08;31.09
61870;BME280;47810;42.264;23.826;2023-04-02T12:49:45;92903.78;;;18.98;29.65
61870;BME280;47810;42.264;23.826;2023-04-02T12:52:12;92912.59;;;18.51;31.91
61870;BME280;47810;42.264;23.826;2023-04-02T12:54:45;92900.16;;;18.83;30.41
61870;BME280;47810;42.264;23.826;2023-04-02T12:57:18;92903.31;;;18.31;31.19
61870;BME280;47810;42.264;23.826;2023-04-02T12:59:44;92906.84;;;18.15;30.74
61870;BME280;47810;42.264;23.826;2023-04-02T13:02:17;92911.50;;;17.72;32.60
61870;BME280;47810;42.264;23.826;2023-04-02T13:04:49;92903.28;;;17.41;33.58
61870;BME280;47810;42.264;23.826;2023-04-02T13:07:16;92900.44;;;17.42;32.87
61870;BME280;47810;42.264;23.826;2023-04-02T13:09:46;92913.44;;;18.52;34.64
61870;BME280;47810;42.264;23.826;2023-04-02T13:12:26;92901.69;;;19.17;29.27
61870;BME280;47810;42.264;23.826;2023-04-02T13:14:56;92917.31;;;18.41;31.38
61870;BME280;47810;42.264;23.826;2023-04-02T13:22:54;92905.09;;;17.32;30.68
61870;BME280;47810;42.264;23.826;2023-04-02T13:25:26;92914.09;;;17.15;31.87
61870;BME280;47810;42.264;23.826;2023-04-02T13:27:52;92913.03;;;17.83;32.03
61870;BME280;47810;42.264;23.826;2023-04-02T13:30:23;92910.81;;;17.62;31.41
61870;BME280;47810;42.264;23.826;2023-04-02T13:32:50;92906.16;;;17.72;31.45
61870;BME280;47810;42.264;23.826;2023-04-02T13:35:16;92896.78;;;17.43;31.43
61870;BME280;47810;42.264;23.826;2023-04-02T13:37:41;92905.19;;;17.89;32.32
61870;BME280;47810;42.264;23.826;2023-04-02T13:40:11;92906.44;;;17.36;31.46
61870;BME280;47810;42.264;23.826;2023-04-02T13:42:37;92900.41;;;17.26;32.53
61870;BME280;47810;42.264;23.826;2023-04-02T13:45:03;92905.22;;;17.06;31.41
61870;BME280;47810;42.264;23.826;2023-04-02T13:47:29;92909.25;;;17.18;31.29
61870;BME280;47810;42.264;23.826;2023-04-02T13:49:54;92908.34;;;17.93;32.12
61870;BME280;47810;42.264;23.826;2023-04-02T13:52:20;92904.81;;;18.33;32.48
61870;BME280;47810;42.264;23.826;2023-04-02T13:54:51;92912.88;;;18.81;36.08
61870;BME280;47810;42.264;23.826;2023-04-02T13:57:18;92918.75;;;18.76;33.80
61870;BME280;47810;42.264;23.826;2023-04-02T13:59:44;92923.69;;;18.24;34.81
61870;BME280;47810;42.264;23.826;2023-04-02T14:02:17;92927.72;;;17.87;36.75
61870;BME280;47810;42.264;23.826;2023-04-02T14:04:47;92929.19;;;17.73;37.18
61870;BME280;47810;42.264;23.826;2023-04-02T14:07:28;92933.13;;;17.36;36.83
61870;BME280;47810;42.264;23.826;2023-04-02T14:15:01;92928.22;;;16.39;34.44
61870;BME280;47810;42.264;23.826;2023-04-02T14:17:43;92922.59;;;16.16;34.99
61870;BME280;47810;42.264;23.826;2023-04-02T14:20:19;92922.69;;;16.06;35.14
61870;BME280;47810;42.264;23.826;2023-04-02T14:28:00;92928.31;;;15.77;35.83
61870;BME280;47810;42.264;23.826;2023-04-02T14:30:35;92922.41;;;15.91;36.73
61870;BME280;47810;42.264;23.826;2023-04-02T14:35:44;92923.44;;;15.54;37.93
61870;BME280;47810;42.264;23.826;2023-04-02T14:38:19;92929.28;;;15.40;38.11
61870;BME280;47810;42.264;23.826;2023-04-02T14:40:49;92924.34;;;15.81;37.34
61870;BME280;47810;42.264;23.826;2023-04-02T14:50:54;92918.09;;;15.54;39.02
61870;BME280;47810;42.264;23.826;2023-04-02T14:53:30;92918.28;;;15.71;36.76
61870;BME280;47810;42.264;23.826;2023-04-02T14:55:58;92911.78;;;15.37;38.14
61870;BME280;47810;42.264;23.826;2023-04-02T14:58:27;92923.19;;;15.12;37.75
61870;BME280;47810;42.264;23.826;2023-04-02T15:03:24;92931.38;;;15.01;39.06
61870;BME280;47810;42.264;23.826;2023-04-02T15:05:56;92932.66;;;15.14;38.19
61870;BME280;47810;42.264;23.826;2023-04-02T15:10:59;92945.22;;;14.77;39.50
61870;BME280;47810;42.264;23.826;2023-04-02T15:13:31;92950.22;;;14.80;38.97
61870;BME280;47810;42.264;23.826;2023-04-02T15:16:02;92949.44;;;14.70;40.74
61870;BME280;47810;42.264;23.826;2023-04-02T15:18:30;92950.63;;;14.85;39.31
61870;BME280;47810;42.264;23.826;2023-04-02T15:21:07;92950.13;;;14.72;38.70
61870;BME280;47810;42.264;23.826;2023-04-02T15:26:17;92956.81;;;14.76;39.01
61870;BME280;47810;42.264;23.826;2023-04-02T15:28:45;92958.22;;;14.70;39.89
61870;BME280;47810;42.264;23.826;2023-04-02T15:31:14;92956.31;;;14.62;39.96
61870;BME280;47810;42.264;23.826;2023-04-02T15:33:42;92948.56;;;14.79;40.02
61870;BME280;47810;42.264;23.826;2023-04-02T15:41:37;92957.31;;;14.89;39.22
61870;BME280;47810;42.264;23.826;2023-04-02T15:44:08;92957.06;;;14.82;38.70
61870;BME280;47810;42.264;23.826;2023-04-02T15:54:36;92972.47;;;14.51;39.22
61870;BME280;47810;42.264;23.826;2023-04-02T16:09:49;92984.56;;;14.07;38.76
61870;BME280;47810;42.264;23.826;2023-04-02T16:12:17;92972.03;;;13.80;39.86
61870;BME280;47810;42.264;23.826;2023-04-02T16:14:44;92973.13;;;14.06;39.42
61870;BME280;47810;42.264;23.826;2023-04-02T16:17:13;92976.22;;;13.82;40.43
61870;BME280;47810;42.264;23.826;2023-04-02T16:19:43;92972.97;;;13.98;40.66
61870;BME280;47810;42.264;23.826;2023-04-02T16:22:22;92968.38;;;14.00;41.06
61870;BME280;47810;42.264;23.826;2023-04-02T16:24:58;92976.22;;;13.82;41.41
61870;BME280;47810;42.264;23.826;2023-04-02T16:30:06;92984.31;;;13.90;41.43
61870;BME280;47810;42.264;23.826;2023-04-02T16:41:07;92992.41;;;13.89;42.05
61870;BME280;47810;42.264;23.826;2023-04-02T16:49:03;92985.13;;;14.10;40.42
61870;BME280;47810;42.264;23.826;2023-04-02T16:54:10;92989.06;;;13.96;41.61
61870;BME280;47810;42.264;23.826;2023-04-02T16:59:06;92989.50;;;13.53;41.89
61870;BME280;47810;42.264;23.826;2023-04-02T17:06:42;92996.88;;;13.40;42.21
61870;BME280;47810;42.264;23.826;2023-04-02T17:09:21;92997.72;;;13.31;43.22
61870;BME280;47810;42.264;23.826;2023-04-02T17:12:13;93002.47;;;13.37;44.24